CUN weather

Cancún International Airport
Cancún, Quintana Roo, Mexico

Public forecast

Using degrees Celsius for public forecast. Weather courtesy of forecast.io.

Current aviation weather report (METAR) for Cancún International Airport

Retrieved 2019/10/21 04:43 UTC (0 seconds ago):

MMUN 210443Z 12004KT 7SM SCT015 BKN250 27/25 A2993 RMK 8/508

Aviation forecast (TAF) for Cancún International Airport

Retrieved 2019-10-21 00:18 UTC (4 hours ago):

TAF MMUN 202317Z 2100/2206 12010KT P6SM SCT015 BKN250 TX32/2120Z TN27/2112Z FM210600 13015KT P6SM BKN015 FM211800 13018KT P6SM SCT015 TEMPO 2121/2201 BKN015